Airfield :







YOU CAN JOIN US ON...

 
LOGIN :

Register | Disclaimer

   EN    FR    IT 

 









Legend :    VFR   Marginal VFR   IFR   Intensive IFR   Very Intensive IFR
Visi :
Ceiling :
>= 8 km
>= 3000ft
5 to 8 km
1000 to 3000 ft
1500m to 5 km
500 to 1000 ft
800 to 1500m
200 to 500 ft
< 800m
< 200 ft
Symbols :   Thunderstorms  Fog  Heavy snow  Heavy precipitations  Wind > 20 kt






- Airport Elevation : 38 ft
- IATA code : YMH


CYMH - Mary's Harbour

CURRENT METAR :
  • 222009Z AUTO 04004KT 3SM -RASN -UP SCT009 BKN018 OVC024 01/M00 A2967 RMK SLP049

EXPIRED METARs :
  • 221959Z AUTO 03003KT 4SM -RA BR FEW009 BKN018 BKN024 OVC029 01/M00 A2967 RMK SLP048
  • 221954Z AUTO 03003KT 8SM -RA FEW009 BKN023 OVC029 01/M00 A2967 RMK SLP048
  • 221933Z AUTO 02004KT 9SM FEW019 OVC029 01/M00 A2967 RMK SLP049
  • 221923Z AUTO 01005KT 9SM -RA FEW008 OVC029 01/M00 A2967 RMK SLP050
  • 221916Z AUTO 01005KT 9SM FEW008 OVC029 01/M00 A2967 RMK SLP050
  • 221900Z AUTO 03005KT 8SM -RA FEW008 SCT021 OVC029 01/M00 A2967 RMK SLP050
  • 221852Z AUTO 03007KT 9SM -RA FEW022 OVC029 01/M00 A2967 RMK SLP050
  • 221835Z AUTO 01004KT 340V060 9SM OVC027 01/M00 A2967 RMK SLP050
  • 221822Z AUTO 01005KT 9SM -RA FEW009 OVC027 01/M00 A2967 RMK SLP050
  • 221800Z AUTO 02006KT 9SM FEW009 OVC027 02/M00 A2967 RMK PCPN 0.8MM PAST HR SLP050

TAF TAF CYMH
Valid from the 22 at 20:00 until the 23 at 04:00 UTC


221940Z 2220/2304 01005KT P6SM SCT015 OVC030
TEMPO 2220/2304 5SM -SNRA BR OVC015
PROB30 2300/2304 1SM -FZDZ BR OVC003 RMK FCST BASED ON AUTO OBS. NXT FCST BY 230200Z



MET'MAP, your aeronautical weather chart ! - Copyright ORBIFLY December 2007 - Disclaimer

ORBIFLY MET'MAP TEAM :

Programming & Development : Alexandra Zaïnal
Concept & Development : Baudouin d'Aumeries
Co-Development & Prog : Marc-Olivier Méhu
Technical & hardware support : Manuel Goepfert

Contact : metmap@orbifly.com




SOURCES & CREDITS :

   NOAA